CheckWX is a tool to help pilots better visualize weather data.  It is not intended as a substitute for an official pre-flight weather briefing.

05:34:33 UTC

KSIY METAR
Siskiyou County Airport
Montague, California, USA
Current

42 mins ago

KSIY 240453Z AUTO 18011KT 10SM FEW041 BKN060 04/M03 A3014 RMK AO2 SLP228 T00441028
Observed
Feb-24 @ 04:53 UTC
Wind
  • 180° at 11 KTS
Visibility
10 SM
Flight Rules
VFR
Cloud Levels
  • Few at 4,100' AGL
  • Broken at 6,000' AGL
Temperature
C / 39°F
Dewpoint
-3°C / 27°F
Humidity
61%
Altimeter
30.14" Hg
Pressure
1022.8 hPa
Previous

2 hours ago

KSIY 240353Z AUTO 19009KT 10SM BKN060 BKN095 04/M03 A3014 RMK AO2 SLP230 T00441028
Observed
Feb-24 @ 03:53 UTC
Wind
  • 190° at 9 KTS
Visibility
10 SM
Flight Rules
VFR
Cloud Levels
  • Broken at 6,000' AGL
  • Broken at 9,500' AGL
Temperature
C / 39°F
Dewpoint
-3°C / 27°F
Humidity
61%
Altimeter
30.14" Hg
Pressure
1023 hPa
Previous

3 hours ago

KSIY 240253Z AUTO 18009KT 10SM SCT037 OVC050 05/M03 A3014 RMK AO2 SLP229 60000 T00501028 55001
Observed
Feb-24 @ 02:53 UTC
Wind
  • 180° at 9 KTS
Visibility
10 SM
Flight Rules
VFR
Cloud Levels
  • Scattered at 3,700' AGL
  • Overcast at 5,000' AGL
Temperature
C / 41°F
Dewpoint
-3°C / 27°F
Humidity
57%
Altimeter
30.14" Hg
Pressure
1022.9 hPa